Terminal Aerodrome Forecast
Issued by NWS Melbourne, FL

Home | Current Version | Previous Version | Text Only | Print | Product List | Glossary On
Versions: 1 2 3 4 5 6 7 8 9 10 11 12 13 14 15 16 17 18 19 20 21 22 23
000
FTUS42 KMLB 222300
TAFMCO
TAF
KMCO 222340Z 2300/2324 17005KT P6SM FEW040 BKN250
     FM230500 17004KT 5SM BR SCT002 OVC006
     FM231400 16008KT P6SM SCT010 BKN020 BKN250
     FM231600 18012KT P6SM SCT030 SCT080 BKN250=

USA.gov is the U.S. government's official web portal to all federal, state and local government web resources and services.